Skip Navigation LinksHome page > Weather > Current weather Skip Navigation Links

Current Weather

Pittsburgh International, Pittsburgh, Penn.

For information only: do not use for flight planning or navigation.
Latest weather
Observation time Tuesday, November 24, 2020 9:51 PM EST
Local time Tuesday, November 24, 2020 9:56 PM EST
Flight conditions Visual Meteorological Conditions
Winds
Wind direction Southeast (130°)
Wind speed 5 mph
Visibility 10 mi.
Sky condition
Ceiling 21,000 ft. overcast
Cloud layer few clouds 7,000 ft.
Cloud layer overcast 21,000 ft.
Temperature 40°F
Dewpoint 29°F
Altimeter 30.15 in.Hg
Pressure change last 3 hours0.05 in.Hg
Pressure falling more slowly
Derived measurements
Relative humidity 65%
Wind chill 37°F
Density altitude -258 ft.
Sea-level pressure 30.19 in.Hg
Remarks
Automated weather observing station with precipitation discriminator.
METAR KPIT 250251Z 13004KT 10SM FEW070 OVC210 04/M02 A3015 RMK AO2 SLP225 T00441017 56018

Settings

Location code

InnerDrive.Weather 4.0.6770.0 Release CLR 4.0.30319.42000
Copyright ©2018 Inner Drive Technology. All rights reserved. Portions Copyright ©1986-2018 David Braverman.

Find weather

Site navigation


Skip Navigation Links

Place info

Page info

PayPal - The safer, easier way to pay online!

Return home.

Copyright ©2020 Inner Drive Technology. Purveyors of fine, hand-crafted computer software. Page printed 2020-11-25T02:56:40 UTC.